EYVI/VNO METAR and TAF weather

Enter ICAO airport designator
Station Type Date Time Source
EYVI METAR 2019/04/24 22:20 UTC NOAA

EYVI 242220Z 13007KT CAVOK 12/M03 Q1023 NOSIG


Station Type Date Time Source
EYVI Decoded METAR 2019/04/24 22:20 UTC NOAA

Vilnius, Lithuania (EYVI) 54-38N 025-06E 156M
Apr 24, 2019 - 06:20 PM EDT / 2019.04.24 2220 UTC
Wind: from the SE (130 degrees) at 8 MPH (7 KT):0
Visibility: greater than 7 mile(s):0
Temperature: 53 F (12 C)
Dew Point: 26 F (-3 C)
Relative Humidity: 34%
Pressure (altimeter): 30.21 in. Hg (1023 hPa)
ob: EYVI 242220Z 13007KT CAVOK 12/M03 Q1023 NOSIG
cycle: 22

Station Type Date Time Source
EYVI TAF 2019/04/24 18:06 UTC NOAA

TAF EYVI 241700Z 2418/2518 13010KT CAVOK

Example: see airport list